Terminal Aerodrome Forecast
Issued by NWS

Home | Current Version | Previous Version | Text Only | Print | Product List | Glossary On
Versions: 1 2 3 4 5 6 7 8 9 10 11 12 13 14 15 16 17 18 19 20 21 22 23
000
FTUS46 KSTO 222300
TAFSCK
TAF
KSCK 222334Z 2300/2324 14008KT 4SM BR SCT009 BKN015
      TEMPO 2300/2303 BKN007
     FM230400 29006KT 4SM BR OVC007
     FM230800 31007KT 2SM BR OVC003
      TEMPO 2309/2312 1/2SM FG OVC001
     FM231200 31007KT 1/4SM FG OVC001
     FM231900 31009KT 2SM BR OVC004
     FM232200 31011KT 4SM HZ SCT007 BKN200=

USA.gov is the U.S. government's official web portal to all federal, state and local government web resources and services.